sensor_id;sensor_type;location;lat;lon;timestamp;temperature;humidity
40622;DHT22;26324;52.040;11.528;2024-03-23T00:55:18;9.10;88.60
40622;DHT22;26324;52.040;11.528;2024-03-23T00:57:45;9.20;88.50
40622;DHT22;26324;52.040;11.528;2024-03-23T01:00:12;9.10;88.40
40622;DHT22;26324;52.040;11.528;2024-03-23T01:02:38;9.00;88.70
40622;DHT22;26324;52.040;11.528;2024-03-23T01:05:04;9.10;88.50
40622;DHT22;26324;52.040;11.528;2024-03-23T01:07:31;9.00;88.00
40622;DHT22;26324;52.040;11.528;2024-03-23T01:09:57;9.00;88.50
40622;DHT22;26324;52.040;11.528;2024-03-23T01:12:23;9.00;88.40
40622;DHT22;26324;52.040;11.528;2024-03-23T01:14:50;8.90;88.50
40622;DHT22;26324;52.040;11.528;2024-03-23T01:17:17;8.90;88.50
40622;DHT22;26324;52.040;11.528;2024-03-23T01:19:43;8.80;88.40
40622;DHT22;26324;52.040;11.528;2024-03-23T01:22:09;8.80;88.60
40622;DHT22;26324;52.040;11.528;2024-03-23T01:24:36;8.80;88.90
40622;DHT22;26324;52.040;11.528;2024-03-23T01:27:02;8.70;88.90
40622;DHT22;26324;52.040;11.528;2024-03-23T01:29:29;8.70;89.00
40622;DHT22;26324;52.040;11.528;2024-03-23T01:31:56;8.70;88.90
40622;DHT22;26324;52.040;11.528;2024-03-23T01:34:22;8.70;88.90
40622;DHT22;26324;52.040;11.528;2024-03-23T01:36:48;8.70;88.80
40622;DHT22;26324;52.040;11.528;2024-03-23T01:39:15;8.70;88.90
40622;DHT22;26324;52.040;11.528;2024-03-23T01:41:41;8.70;89.20
40622;DHT22;26324;52.040;11.528;2024-03-23T01:44:09;8.80;89.00
40622;DHT22;26324;52.040;11.528;2024-03-23T01:46:37;8.70;88.80
40622;DHT22;26324;52.040;11.528;2024-03-23T01:49:06;8.80;88.90
40622;DHT22;26324;52.040;11.528;2024-03-23T01:51:33;8.60;88.90
40622;DHT22;26324;52.040;11.528;2024-03-23T01:54:03;8.60;89.30
40622;DHT22;26324;52.040;11.528;2024-03-23T01:56:31;8.60;89.30
40622;DHT22;26324;52.040;11.528;2024-03-23T01:58:59;8.70;89.30
40622;DHT22;26324;52.040;11.528;2024-03-23T02:01:27;8.80;88.90
40622;DHT22;26324;52.040;11.528;2024-03-23T02:03:53;8.90;88.90
40622;DHT22;26324;52.040;11.528;2024-03-23T02:06:19;9.00;88.50
40622;DHT22;26324;52.040;11.528;2024-03-23T02:08:46;9.10;88.00
40622;DHT22;26324;52.040;11.528;2024-03-23T02:11:12;9.00;88.00
40622;DHT22;26324;52.040;11.528;2024-03-23T02:13:38;8.90;88.00
40622;DHT22;26324;52.040;11.528;2024-03-23T02:16:05;8.80;88.20
40622;DHT22;26324;52.040;11.528;2024-03-23T02:18:35;9.00;88.10
40622;DHT22;26324;52.040;11.528;2024-03-23T02:21:03;9.10;88.00
40622;DHT22;26324;52.040;11.528;2024-03-23T02:23:29;9.10;87.50
40622;DHT22;26324;52.040;11.528;2024-03-23T02:25:56;9.10;87.20
40622;DHT22;26324;52.040;11.528;2024-03-23T02:28:23;9.10;86.30
40622;DHT22;26324;52.040;11.528;2024-03-23T02:30:49;9.00;83.30
40622;DHT22;26324;52.040;11.528;2024-03-23T02:33:16;8.90;82.30
40622;DHT22;26324;52.040;11.528;2024-03-23T02:35:46;8.80;82.40
40622;DHT22;26324;52.040;11.528;2024-03-23T02:38:13;8.80;82.80
40622;DHT22;26324;52.040;11.528;2024-03-23T02:40:39;8.70;82.90
40622;DHT22;26324;52.040;11.528;2024-03-23T02:43:06;8.60;82.80
40622;DHT22;26324;52.040;11.528;2024-03-23T02:45:32;8.50;83.30
40622;DHT22;26324;52.040;11.528;2024-03-23T02:47:58;8.40;83.90
40622;DHT22;26324;52.040;11.528;2024-03-23T02:50:25;8.30;84.20
40622;DHT22;26324;52.040;11.528;2024-03-23T02:52:51;8.30;84.60
40622;DHT22;26324;52.040;11.528;2024-03-23T02:55:17;8.20;84.80
40622;DHT22;26324;52.040;11.528;2024-03-23T02:57:44;8.10;84.90
40622;DHT22;26324;52.040;11.528;2024-03-23T03:00:10;8.00;85.00
40622;DHT22;26324;52.040;11.528;2024-03-23T03:02:37;8.00;85.20
40622;DHT22;26324;52.040;11.528;2024-03-23T03:05:04;7.90;85.60
40622;DHT22;26324;52.040;11.528;2024-03-23T03:07:32;7.80;85.80
40622;DHT22;26324;52.040;11.528;2024-03-23T03:09:58;7.80;86.20
40622;DHT22;26324;52.040;11.528;2024-03-23T03:12:24;7.90;86.40
40622;DHT22;26324;52.040;11.528;2024-03-23T03:14:51;7.90;86.40
40622;DHT22;26324;52.040;11.528;2024-03-23T03:17:17;7.90;86.30
40622;DHT22;26324;52.040;11.528;2024-03-23T03:19:43;8.00;86.30
40622;DHT22;26324;52.040;11.528;2024-03-23T03:22:10;8.00;86.10
40622;DHT22;26324;52.040;11.528;2024-03-23T03:24:36;8.00;86.20
40622;DHT22;26324;52.040;11.528;2024-03-23T03:27:02;8.00;86.20
40622;DHT22;26324;52.040;11.528;2024-03-23T03:29:29;8.00;86.10
40622;DHT22;26324;52.040;11.528;2024-03-23T03:32:02;8.00;86.20
40622;DHT22;26324;52.040;11.528;2024-03-23T03:34:28;8.00;86.20
40622;DHT22;26324;52.040;11.528;2024-03-23T03:36:56;8.00;86.10
40622;DHT22;26324;52.040;11.528;2024-03-23T03:39:22;8.00;86.60
40622;DHT22;26324;52.040;11.528;2024-03-23T03:41:49;8.00;86.50
40622;DHT22;26324;52.040;11.528;2024-03-23T03:44:16;8.00;86.20
40622;DHT22;26324;52.040;11.528;2024-03-23T03:46:42;8.00;85.80
40622;DHT22;26324;52.040;11.528;2024-03-23T03:49:09;8.00;85.60
40622;DHT22;26324;52.040;11.528;2024-03-23T03:51:35;7.90;85.90
40622;DHT22;26324;52.040;11.528;2024-03-23T03:54:01;7.90;85.40
40622;DHT22;26324;52.040;11.528;2024-03-23T03:56:28;7.90;85.20
40622;DHT22;26324;52.040;11.528;2024-03-23T03:58:54;7.80;85.10
40622;DHT22;26324;52.040;11.528;2024-03-23T04:01:21;7.70;85.20
40622;DHT22;26324;52.040;11.528;2024-03-23T04:03:47;7.60;85.60
40622;DHT22;26324;52.040;11.528;2024-03-23T04:06:19;7.60;85.70
40622;DHT22;26324;52.040;11.528;2024-03-23T04:08:45;7.60;85.90
40622;DHT22;26324;52.040;11.528;2024-03-23T04:11:12;7.50;85.70
40622;DHT22;26324;52.040;11.528;2024-03-23T04:13:38;7.50;86.00
40622;DHT22;26324;52.040;11.528;2024-03-23T04:16:07;7.50;86.00
40622;DHT22;26324;52.040;11.528;2024-03-23T04:18:35;7.50;86.30
40622;DHT22;26324;52.040;11.528;2024-03-23T04:21:01;7.50;86.30
40622;DHT22;26324;52.040;11.528;2024-03-23T04:23:28;7.50;86.30
40622;DHT22;26324;52.040;11.528;2024-03-23T04:25:54;7.50;86.10
40622;DHT22;26324;52.040;11.528;2024-03-23T04:28:20;7.50;86.50
40622;DHT22;26324;52.040;11.528;2024-03-23T04:30:47;7.50;86.60
40622;DHT22;26324;52.040;11.528;2024-03-23T04:33:13;7.50;86.60
40622;DHT22;26324;52.040;11.528;2024-03-23T04:35:39;7.50;86.50
40622;DHT22;26324;52.040;11.528;2024-03-23T04:38:06;7.50;86.80
40622;DHT22;26324;52.040;11.528;2024-03-23T04:40:32;7.50;86.80
40622;DHT22;26324;52.040;11.528;2024-03-23T04:42:59;7.60;86.60
40622;DHT22;26324;52.040;11.528;2024-03-23T04:45:25;7.60;86.50
40622;DHT22;26324;52.040;11.528;2024-03-23T04:47:51;7.50;86.60
40622;DHT22;26324;52.040;11.528;2024-03-23T04:50:18;7.50;86.50
40622;DHT22;26324;52.040;11.528;2024-03-23T04:52:44;7.50;86.50
40622;DHT22;26324;52.040;11.528;2024-03-23T04:55:11;7.50;86.40
40622;DHT22;26324;52.040;11.528;2024-03-23T04:57:38;7.50;86.50
40622;DHT22;26324;52.040;11.528;2024-03-23T05:00:05;7.50;86.40
40622;DHT22;26324;52.040;11.528;2024-03-23T05:02:43;7.50;86.40
40622;DHT22;26324;52.040;11.528;2024-03-23T05:05:11;7.50;86.30
40622;DHT22;26324;52.040;11.528;2024-03-23T05:07:38;7.40;86.10
40622;DHT22;26324;52.040;11.528;2024-03-23T05:10:05;7.40;85.90
40622;DHT22;26324;52.040;11.528;2024-03-23T05:12:31;7.30;85.90
40622;DHT22;26324;52.040;11.528;2024-03-23T05:14:58;7.30;85.90
40622;DHT22;26324;52.040;11.528;2024-03-23T05:17:24;7.30;85.80
40622;DHT22;26324;52.040;11.528;2024-03-23T05:19:51;7.30;85.70
40622;DHT22;26324;52.040;11.528;2024-03-23T05:22:17;7.30;85.70
40622;DHT22;26324;52.040;11.528;2024-03-23T05:24:45;7.30;85.50
40622;DHT22;26324;52.040;11.528;2024-03-23T05:27:11;7.20;85.40
40622;DHT22;26324;52.040;11.528;2024-03-23T05:29:38;7.30;85.50
40622;DHT22;26324;52.040;11.528;2024-03-23T05:32:04;7.20;85.50
40622;DHT22;26324;52.040;11.528;2024-03-23T05:34:31;7.20;85.50
40622;DHT22;26324;52.040;11.528;2024-03-23T05:36:57;7.20;85.60
40622;DHT22;26324;52.040;11.528;2024-03-23T05:39:23;7.10;85.40
40622;DHT22;26324;52.040;11.528;2024-03-23T05:41:50;7.10;85.20
40622;DHT22;26324;52.040;11.528;2024-03-23T05:44:17;7.10;85.00
40622;DHT22;26324;52.040;11.528;2024-03-23T05:46:43;7.10;85.10
40622;DHT22;26324;52.040;11.528;2024-03-23T05:49:15;7.10;85.30
40622;DHT22;26324;52.040;11.528;2024-03-23T05:51:43;7.10;85.40
40622;DHT22;26324;52.040;11.528;2024-03-23T05:54:09;7.10;85.60
40622;DHT22;26324;52.040;11.528;2024-03-23T05:56:36;7.10;85.70
40622;DHT22;26324;52.040;11.528;2024-03-23T05:59:02;7.10;85.60
40622;DHT22;26324;52.040;11.528;2024-03-23T06:01:29;7.10;85.40
40622;DHT22;26324;52.040;11.528;2024-03-23T06:03:58;7.10;85.40
40622;DHT22;26324;52.040;11.528;2024-03-23T06:06:27;7.00;85.30
40622;DHT22;26324;52.040;11.528;2024-03-23T06:08:56;7.00;84.80
40622;DHT22;26324;52.040;11.528;2024-03-23T06:11:22;7.00;84.80
40622;DHT22;26324;52.040;11.528;2024-03-23T06:13:49;7.00;84.70
40622;DHT22;26324;52.040;11.528;2024-03-23T06:16:15;7.00;84.60
40622;DHT22;26324;52.040;11.528;2024-03-23T06:18:41;7.00;84.00
40622;DHT22;26324;52.040;11.528;2024-03-23T06:21:13;7.00;83.60
40622;DHT22;26324;52.040;11.528;2024-03-23T06:23:44;7.00;84.00
40622;DHT22;26324;52.040;11.528;2024-03-23T06:26:18;7.00;83.90
40622;DHT22;26324;52.040;11.528;2024-03-23T06:28:45;7.00;83.80
40622;DHT22;26324;52.040;11.528;2024-03-23T06:31:12;7.00;83.80
40622;DHT22;26324;52.040;11.528;2024-03-23T06:33:39;7.00;84.10
40622;DHT22;26324;52.040;11.528;2024-03-23T06:36:09;7.00;83.70
40622;DHT22;26324;52.040;11.528;2024-03-23T06:38:36;7.10;83.50
40622;DHT22;26324;52.040;11.528;2024-03-23T06:41:08;7.10;83.70
40622;DHT22;26324;52.040;11.528;2024-03-23T06:43:35;7.10;83.90
40622;DHT22;26324;52.040;11.528;2024-03-23T06:46:02;7.10;84.10
40622;DHT22;26324;52.040;11.528;2024-03-23T06:48:30;7.10;84.10
40622;DHT22;26324;52.040;11.528;2024-03-23T06:50:57;7.10;84.30
40622;DHT22;26324;52.040;11.528;2024-03-23T06:53:24;7.00;84.50
40622;DHT22;26324;52.040;11.528;2024-03-23T06:55:51;7.10;83.90
40622;DHT22;26324;52.040;11.528;2024-03-23T06:58:23;6.80;84.40
40622;DHT22;26324;52.040;11.528;2024-03-23T07:00:50;6.80;84.70
40622;DHT22;26324;52.040;11.528;2024-03-23T07:03:17;6.90;85.00
40622;DHT22;26324;52.040;11.528;2024-03-23T07:05:43;6.70;85.10
40622;DHT22;26324;52.040;11.528;2024-03-23T07:08:10;6.90;85.50
40622;DHT22;26324;52.040;11.528;2024-03-23T07:10:39;6.80;85.70
40622;DHT22;26324;52.040;11.528;2024-03-23T07:13:06;6.90;85.90
40622;DHT22;26324;52.040;11.528;2024-03-23T07:15:33;7.00;85.80
40622;DHT22;26324;52.040;11.528;2024-03-23T07:18:00;7.00;86.00
40622;DHT22;26324;52.040;11.528;2024-03-23T07:20:27;7.00;85.70
40622;DHT22;26324;52.040;11.528;2024-03-23T07:22:53;7.10;85.50
40622;DHT22;26324;52.040;11.528;2024-03-23T07:25:20;7.10;85.10
40622;DHT22;26324;52.040;11.528;2024-03-23T07:27:47;7.10;83.80
40622;DHT22;26324;52.040;11.528;2024-03-23T07:30:14;7.00;83.50
40622;DHT22;26324;52.040;11.528;2024-03-23T07:32:40;7.10;83.70
40622;DHT22;26324;52.040;11.528;2024-03-23T07:35:07;7.10;84.00
40622;DHT22;26324;52.040;11.528;2024-03-23T07:37:33;7.10;84.20
40622;DHT22;26324;52.040;11.528;2024-03-23T07:39:59;7.10;84.10
40622;DHT22;26324;52.040;11.528;2024-03-23T07:42:26;7.00;83.60
40622;DHT22;26324;52.040;11.528;2024-03-23T07:44:52;7.00;82.90
40622;DHT22;26324;52.040;11.528;2024-03-23T07:49:48;7.00;82.70
40622;DHT22;26324;52.040;11.528;2024-03-23T07:52:14;7.00;82.90
40622;DHT22;26324;52.040;11.528;2024-03-23T07:57:07;7.00;83.50
40622;DHT22;26324;52.040;11.528;2024-03-23T07:59:34;7.00;83.30
40622;DHT22;26324;52.040;11.528;2024-03-23T08:02:01;7.10;83.60
40622;DHT22;26324;52.040;11.528;2024-03-23T08:04:27;7.10;83.60
40622;DHT22;26324;52.040;11.528;2024-03-23T08:06:54;7.10;83.40
40622;DHT22;26324;52.040;11.528;2024-03-23T08:09:20;7.10;83.60
40622;DHT22;26324;52.040;11.528;2024-03-23T08:14:14;7.20;83.40
40622;DHT22;26324;52.040;11.528;2024-03-23T08:16:40;7.30;83.60
40622;DHT22;26324;52.040;11.528;2024-03-23T08:19:07;7.20;83.20
40622;DHT22;26324;52.040;11.528;2024-03-23T08:21:34;7.20;83.20
40622;DHT22;26324;52.040;11.528;2024-03-23T08:24:01;7.20;83.30
40622;DHT22;26324;52.040;11.528;2024-03-23T08:26:27;7.20;83.40
40622;DHT22;26324;52.040;11.528;2024-03-23T08:28:54;7.00;82.40
40622;DHT22;26324;52.040;11.528;2024-03-23T08:31:20;6.90;82.90
40622;DHT22;26324;52.040;11.528;2024-03-23T08:33:47;6.90;82.90
40622;DHT22;26324;52.040;11.528;2024-03-23T08:36:13;6.90;82.80
40622;DHT22;26324;52.040;11.528;2024-03-23T08:38:43;6.90;82.20
40622;DHT22;26324;52.040;11.528;2024-03-23T08:41:10;6.80;82.30
40622;DHT22;26324;52.040;11.528;2024-03-23T08:43:40;6.80;83.00
40622;DHT22;26324;52.040;11.528;2024-03-23T08:46:11;6.80;82.50
40622;DHT22;26324;52.040;11.528;2024-03-23T08:48:40;6.80;82.30
40622;DHT22;26324;52.040;11.528;2024-03-23T08:51:07;6.80;82.30
40622;DHT22;26324;52.040;11.528;2024-03-23T08:53:38;6.80;83.00
40622;DHT22;26324;52.040;11.528;2024-03-23T08:56:05;6.80;83.30
40622;DHT22;26324;52.040;11.528;2024-03-23T08:58:36;6.80;82.60
40622;DHT22;26324;52.040;11.528;2024-03-23T09:01:13;6.80;82.20
40622;DHT22;26324;52.040;11.528;2024-03-23T09:03:39;6.80;83.20
40622;DHT22;26324;52.040;11.528;2024-03-23T09:06:11;6.90;82.60
40622;DHT22;26324;52.040;11.528;2024-03-23T09:08:38;7.00;82.60
40622;DHT22;26324;52.040;11.528;2024-03-23T09:11:06;7.00;82.30
40622;DHT22;26324;52.040;11.528;2024-03-23T09:13:34;7.00;82.80
40622;DHT22;26324;52.040;11.528;2024-03-23T09:16:01;7.00;82.40
40622;DHT22;26324;52.040;11.528;2024-03-23T09:18:27;7.10;82.10
40622;DHT22;26324;52.040;11.528;2024-03-23T09:20:54;7.10;82.90
40622;DHT22;26324;52.040;11.528;2024-03-23T09:23:21;7.10;82.50
40622;DHT22;26324;52.040;11.528;2024-03-23T09:25:48;7.00;82.70
40622;DHT22;26324;52.040;11.528;2024-03-23T09:28:14;6.90;81.50
40622;DHT22;26324;52.040;11.528;2024-03-23T09:30:41;6.90;80.80
40622;DHT22;26324;52.040;11.528;2024-03-23T09:33:12;6.90;81.20
40622;DHT22;26324;52.040;11.528;2024-03-23T09:35:40;6.80;81.00
40622;DHT22;26324;52.040;11.528;2024-03-23T09:38:07;6.70;82.20
40622;DHT22;26324;52.040;11.528;2024-03-23T09:40:43;6.60;81.90
40622;DHT22;26324;52.040;11.528;2024-03-23T09:43:10;6.50;82.10
40622;DHT22;26324;52.040;11.528;2024-03-23T09:45:40;6.50;82.00
40622;DHT22;26324;52.040;11.528;2024-03-23T09:48:09;6.60;82.10
40622;DHT22;26324;52.040;11.528;2024-03-23T09:50:39;6.70;82.50
40622;DHT22;26324;52.040;11.528;2024-03-23T09:53:10;6.70;83.10
40622;DHT22;26324;52.040;11.528;2024-03-23T09:55:44;6.90;83.40
40622;DHT22;26324;52.040;11.528;2024-03-23T09:58:18;7.00;83.10
40622;DHT22;26324;52.040;11.528;2024-03-23T10:00:45;7.10;83.50
40622;DHT22;26324;52.040;11.528;2024-03-23T10:03:11;7.10;83.00
40622;DHT22;26324;52.040;11.528;2024-03-23T10:05:38;7.10;83.00
40622;DHT22;26324;52.040;11.528;2024-03-23T10:10:44;7.10;82.40
40622;DHT22;26324;52.040;11.528;2024-03-23T10:13:24;7.00;82.60
40622;DHT22;26324;52.040;11.528;2024-03-23T10:15:55;7.00;82.30
40622;DHT22;26324;52.040;11.528;2024-03-23T10:18:23;7.00;82.40
40622;DHT22;26324;52.040;11.528;2024-03-23T10:20:52;6.90;81.90
40622;DHT22;26324;52.040;11.528;2024-03-23T10:23:33;7.00;81.90
40622;DHT22;26324;52.040;11.528;2024-03-23T10:31:24;7.30;81.30
40622;DHT22;26324;52.040;11.528;2024-03-23T10:33:51;7.20;81.00
40622;DHT22;26324;52.040;11.528;2024-03-23T10:36:22;7.30;80.90
40622;DHT22;26324;52.040;11.528;2024-03-23T10:38:50;7.50;80.60
40622;DHT22;26324;52.040;11.528;2024-03-23T10:43:47;7.60;81.20
40622;DHT22;26324;52.040;11.528;2024-03-23T10:48:40;7.50;80.60
40622;DHT22;26324;52.040;11.528;2024-03-23T10:51:08;7.30;80.70
40622;DHT22;26324;52.040;11.528;2024-03-23T10:53:36;6.70;80.40
40622;DHT22;26324;52.040;11.528;2024-03-23T10:56:05;6.10;82.30
40622;DHT22;26324;52.040;11.528;2024-03-23T10:58:39;5.80;84.20
40622;DHT22;26324;52.040;11.528;2024-03-23T11:01:05;5.60;85.60
40622;DHT22;26324;52.040;11.528;2024-03-23T14:30:56;7.50;76.80
